Time;durP1;ratioP1;P1;durP2;ratioP2;P2;SDS_P1;SDS_P2;PMS_P1;PMS_P2;Temp;Humidity;BMP_temperature;BMP_pressure;BME280_temperature;BME280_humidity;BME280_pressure;Samples;Min_cycle;Max_cycle;Signal;HPM_P1;HPM_P2
2024/01/20 00:01:49;;;;;;;12.82;6.07;;;;;;;;;;5078627;28;20028;-77
2024/01/20 00:04:15;;;;;;;11.27;5.32;;;;;;;;;;5082545;28;20676;-76
2024/01/20 00:06:41;;;;;;;14.32;6.30;;;;;;;;;;5082543;28;20028;-76
2024/01/20 00:09:07;;;;;;;14.68;6.60;;;;;;;;;;5079051;28;21223;-76
2024/01/20 00:11:33;;;;;;;12.23;5.10;;;;;;;;;;5083223;28;20031;-76
2024/01/20 00:13:59;;;;;;;11.32;5.78;;;;;;;;;;5064671;28;20028;-77
2024/01/20 00:16:25;;;;;;;13.05;6.55;;;;;;;;;;5083176;28;20026;-77
2024/01/20 00:18:51;;;;;;;13.27;5.10;;;;;;;;;;5080352;28;20035;-76
2024/01/20 00:21:17;;;;;;;13.75;6.03;;;;;;;;;;5082282;28;20024;-77
2024/01/20 00:23:43;;;;;;;11.27;5.05;;;;;;;;;;5085191;28;20488;-77
2024/01/20 00:26:09;;;;;;;12.52;6.30;;;;;;;;;;5084193;28;20032;-76
2024/01/20 00:28:35;;;;;;;13.27;6.13;;;;;;;;;;5072481;28;20032;-76
2024/01/20 00:31:01;;;;;;;11.90;5.90;;;;;;;;;;5082550;28;20064;-76
2024/01/20 00:33:27;;;;;;;16.27;7.07;;;;;;;;;;5084185;28;20035;-77
2024/01/20 00:35:53;;;;;;;13.90;5.72;;;;;;;;;;5083759;28;20051;-77
2024/01/20 00:38:19;;;;;;;14.80;6.03;;;;;;;;;;5085655;28;20036;-77
2024/01/20 00:40:45;;;;;;;14.35;6.13;;;;;;;;;;5083059;28;20074;-76
2024/01/20 00:43:11;;;;;;;14.38;6.97;;;;;;;;;;5073379;28;20039;-76
2024/01/20 00:45:37;;;;;;;13.20;5.15;;;;;;;;;;5077890;28;20020;-76
2024/01/20 00:48:03;;;;;;;12.00;5.25;;;;;;;;;;5079595;28;20031;-77
2024/01/20 00:50:29;;;;;;;10.75;6.45;;;;;;;;;;5083317;28;20036;-78
2024/01/20 00:52:55;;;;;;;12.80;6.78;;;;;;;;;;5092284;28;20028;-75
2024/01/20 00:55:21;;;;;;;12.60;6.10;;;;;;;;;;5083786;28;20122;-77
2024/01/20 00:57:47;;;;;;;13.32;5.68;;;;;;;;;;5078444;28;20036;-77
2024/01/20 01:00:13;;;;;;;16.70;7.38;;;;;;;;;;5084261;28;20384;-78
2024/01/20 01:02:40;;;;;;;16.85;7.32;;;-0.80;99.90;;;;;;5080940;28;20066;-78
2024/01/20 01:05:06;;;;;;;11.43;5.60;;;;;;;;;;5082194;28;20599;-77
2024/01/20 01:07:32;;;;;;;14.05;6.15;;;;;;;;;;5083322;28;20146;-76
2024/01/20 01:09:58;;;;;;;9.05;5.47;;;;;;;;;;5078271;28;20024;-76
2024/01/20 01:12:24;;;;;;;11.43;5.18;;;;;;;;;;5081451;28;20038;-77
2024/01/20 01:14:50;;;;;;;10.02;5.97;;;;;;;;;;5072410;28;20032;-76
2024/01/20 01:17:17;;;;;;;9.50;3.92;;;;;;;;;;5084199;28;20032;-75
2024/01/20 01:19:43;;;;;;;10.77;4.40;;;;;;;;;;5085862;28;20040;-77
2024/01/20 01:22:09;;;;;;;8.35;4.18;;;;;;;;;;5080968;28;20081;-77
2024/01/20 01:24:35;;;;;;;7.95;3.95;;;;;;;;;;5078776;28;20108;-77
2024/01/20 01:27:01;;;;;;;15.80;5.15;;;;;;;;;;5081193;28;20047;-78
2024/01/20 01:29:27;;;;;;;7.35;4.32;;;;;;;;;;5081878;28;20043;-77
2024/01/20 01:31:53;;;;;;;12.45;4.35;;;;;;;;;;5077984;28;20031;-77
2024/01/20 01:34:19;;;;;;;11.38;6.15;;;;;;;;;;5080913;28;20131;-77
2024/01/20 01:36:45;;;;;;;12.80;7.15;;;;;;;;;;5079220;28;20518;-76
2024/01/20 01:39:11;;;;;;;13.00;6.03;;;;;;;;;;5080471;28;20634;-77
2024/01/20 01:41:37;;;;;;;14.48;7.65;;;;;;;;;;5081109;28;20032;-76
2024/01/20 01:44:03;;;;;;;14.88;6.88;;;;;;;;;;5077166;28;20123;-75
2024/01/20 01:46:30;;;;;;;11.30;6.07;;;;;;;;;;5085111;28;20055;-75
2024/01/20 01:48:56;;;;;;;20.27;6.57;;;;;;;;;;5072425;28;20035;-76
2024/01/20 01:51:22;;;;;;;13.23;5.97;;;;;;;;;;5082956;28;20480;-76
2024/01/20 01:53:49;;;;;;;11.40;5.93;;;;;;;;;;5075943;28;20066;-75
2024/01/20 01:56:15;;;;;;;15.32;5.88;;;;;;;;;;5077412;28;20036;-76
2024/01/20 01:58:44;;;;;;;11.88;5.68;;;;;;;;;;5084406;28;20032;-77
2024/01/20 02:01:10;;;;;;;11.23;5.28;;;;;;;;;;5083315;28;20036;-77
2024/01/20 02:03:36;;;;;;;8.60;4.82;;;;;;;;;;5071205;28;20582;-77
2024/01/20 02:06:02;;;;;;;14.55;5.10;;;;;;;;;;5079667;28;20059;-76
2024/01/20 02:08:28;;;;;;;10.10;3.83;;;;;;;;;;5083104;28;20020;-75
2024/01/20 02:10:54;;;;;;;9.73;5.13;;;;;;;;;;5081768;28;20028;-76
2024/01/20 02:13:21;;;;;;;12.07;5.28;;;;;;;;;;5083819;28;20103;-75
2024/01/20 02:15:47;;;;;;;9.02;5.00;;;;;;;;;;5083318;28;20023;-75
2024/01/20 02:18:12;;;;;;;8.52;4.22;;;;;;;;;;5076104;28;20024;-76
2024/01/20 02:20:38;;;;;;;5.75;3.58;;;;;;;;;;5080659;28;20154;-76
2024/01/20 02:23:04;;;;;;;9.55;4.40;;;;;;;;;;5069549;28;20043;-74
2024/01/20 02:25:31;;;;;;;10.15;3.70;;;;;;;;;;5084513;28;20043;-76
2024/01/20 02:27:56;;;;;;;9.70;4.25;;;;;;;;;;5080550;28;20031;-76
2024/01/20 02:30:22;;;;;;;9.02;4.45;;;;;;;;;;5081431;28;20040;-75
2024/01/20 02:32:48;;;;;;;12.80;5.28;;;;;;;;;;5079324;28;20054;-76
2024/01/20 02:35:16;;;;;;;6.57;4.28;;;;;;;;;;5085830;28;20139;-76
2024/01/20 02:37:42;;;;;;;11.00;4.80;;;;;;;;;;5075281;28;20583;-76
2024/01/20 02:40:08;;;;;;;5.60;3.17;;;;;;;;;;5078927;28;20206;-76
2024/01/20 02:42:34;;;;;;;6.38;4.65;;;;;;;;;;5081394;28;20519;-76
2024/01/20 02:45:00;;;;;;;10.80;4.35;;;;;;;;;;5083649;28;20020;-76
2024/01/20 02:47:26;;;;;;;9.00;4.90;;;;;;;;;;5076182;28;20575;-76
2024/01/20 02:49:52;;;;;;;7.15;2.95;;;;;;;;;;5077893;28;20645;-76
2024/01/20 02:52:18;;;;;;;5.43;3.78;;;;;;;;;;5076133;28;20415;-76
2024/01/20 02:54:44;;;;;;;7.88;3.20;;;;;;;;;;5079463;28;20154;-76
2024/01/20 02:57:10;;;;;;;6.18;3.97;;;;;;;;;;5081776;28;20044;-76
2024/01/20 02:59:36;;;;;;;7.57;4.30;;;;;;;;;;5081496;28;20029;-76
2024/01/20 03:02:02;;;;;;;9.20;4.20;;;;;;;;;;5079010;28;20041;-76
2024/01/20 03:04:28;;;;;;;7.03;4.40;;;;;;;;;;5086899;28;20020;-76
2024/01/20 03:06:54;;;;;;;10.10;3.97;;;;;;;;;;5080825;28;20028;-75
2024/01/20 03:09:20;;;;;;;12.18;4.78;;;;;;;;;;5078065;28;20028;-76
2024/01/20 03:11:46;;;;;;;7.80;4.93;;;;;;;;;;5076600;28;20085;-75
2024/01/20 03:14:12;;;;;;;10.48;5.05;;;;;;;;;;5080021;28;20534;-77
2024/01/20 03:16:38;;;;;;;6.88;4.10;;;;;;;;;;5075879;28;20024;-78
2024/01/20 03:19:05;;;;;;;8.20;5.07;;;;;;;;;;5080664;28;20490;-77
2024/01/20 03:21:31;;;;;;;6.90;3.67;;;;;;;;;;5075467;28;20518;-77
2024/01/20 03:23:57;;;;;;;10.57;4.72;;;;;;;;;;5064527;28;20031;-75
2024/01/20 03:26:23;;;;;;;7.90;4.13;;;;;;;;;;5083069;28;20036;-77
2024/01/20 03:28:49;;;;;;;10.43;3.80;;;;;;;;;;5085695;28;20682;-77
2024/01/20 03:31:15;;;;;;;7.25;4.57;;;;;;;;;;5070397;28;20471;-77
2024/01/20 03:33:41;;;;;;;9.02;4.72;;;;;;;;;;5080422;28;20488;-77
2024/01/20 03:36:07;;;;;;;5.78;3.30;;;;;;;;;;5086220;28;20117;-76
2024/01/20 03:38:33;;;;;;;9.60;4.75;;;;;;;;;;5080155;28;20400;-78
2024/01/20 03:40:59;;;;;;;8.00;4.60;;;;;;;;;;5082183;28;20039;-77
2024/01/20 03:43:25;;;;;;;13.68;5.45;;;;;;;;;;5083447;28;20039;-77
2024/01/20 03:45:53;;;;;;;7.78;3.72;;;;;;;;;;5084559;28;20024;-77
2024/01/20 03:48:19;;;;;;;9.02;5.50;;;;;;;;;;5080287;28;20039;-77
2024/01/20 03:50:45;;;;;;;9.02;5.32;;;;;;;;;;5083875;28;20024;-78
2024/01/20 03:53:11;;;;;;;8.05;4.78;;;;;;;;;;5076004;28;20031;-78
2024/01/20 03:55:37;;;;;;;11.93;4.55;;;;;;;;;;5086073;28;20384;-78
2024/01/20 03:58:03;;;;;;;7.53;3.97;;;;;;;;;;5076193;28;20017;-78
2024/01/20 04:00:29;;;;;;;6.95;3.65;;;;;;;;;;5097481;28;20048;-78
2024/01/20 04:02:55;;;;;;;14.85;4.82;;;;;;;;;;5099177;28;20487;-79
2024/01/20 04:05:21;;;;;;;6.95;3.45;;;;;;;;;;5088009;28;20016;-76
2024/01/20 04:07:47;;;;;;;9.68;5.30;;;;;;;;;;5087141;28;20053;-80
2024/01/20 04:10:14;;;;;;;5.60;3.53;;;;;;;;;;5083336;28;20027;-79
2024/01/20 04:12:41;;;;;;;12.07;5.38;;;;;;;;;;5081585;28;20035;-78
2024/01/20 04:15:07;;;;;;;8.77;4.30;;;;;;;;;;5080832;28;20020;-79
2024/01/20 04:17:33;;;;;;;8.88;4.60;;;;;;;;;;5079309;28;20016;-79
2024/01/20 04:19:59;;;;;;;10.60;5.22;;;;;;;;;;5077314;28;22547;-79
2024/01/20 04:22:25;;;;;;;11.40;5.20;;;;;;;;;;5068127;28;20035;-78
2024/01/20 04:24:51;;;;;;;11.88;4.65;;;;;;;;;;5071749;28;20114;-79
2024/01/20 04:27:17;;;;;;;11.20;5.32;;;;;;;;;;5074966;28;20140;-78
2024/01/20 04:29:43;;;;;;;12.88;6.03;;;;;;;;;;5084520;28;20075;-77
2024/01/20 04:32:09;;;;;;;10.30;5.32;;;;;;;;;;5078814;28;20044;-79
2024/01/20 04:34:35;;;;;;;14.40;7.40;;;;;;;;;;5072398;28;20032;-77
2024/01/20 04:37:01;;;;;;;8.65;4.60;;;;;;;;;;5081207;28;20090;-78
2024/01/20 04:39:27;;;;;;;9.35;5.28;;;;;;;;;;5082837;28;20114;-78
2024/01/20 04:41:53;;;;;;;7.75;4.07;;;;;;;;;;5080000;28;20055;-77
2024/01/20 04:44:18;;;;;;;10.27;6.10;;;;;;;;;;5066911;28;20020;-78
2024/01/20 04:46:44;;;;;;;9.30;5.70;;;;;;;;;;5083808;28;20027;-77
2024/01/20 04:49:10;;;;;;;16.08;6.57;;;;;;;;;;5084268;28;20034;-77
2024/01/20 04:51:36;;;;;;;17.48;7.72;;;;;;;;;;5084629;28;20511;-77
2024/01/20 04:54:02;;;;;;;9.95;5.53;;;;;;;;;;5076325;28;20710;-77
2024/01/20 04:56:28;;;;;;;11.30;5.95;;;;;;;;;;5082044;28;20416;-78
2024/01/20 04:58:55;;;;;;;15.23;6.05;;;;;;;;;;5079242;28;20062;-78
2024/01/20 05:01:21;;;;;;;16.25;6.30;;;;;;;;;;5062783;28;20557;-77
2024/01/20 05:03:47;;;;;;;15.32;5.20;;;;;;;;;;5085420;28;20173;-78
2024/01/20 05:06:13;;;;;;;13.93;6.88;;;;;;;;;;5085765;28;20047;-78
2024/01/20 05:08:39;;;;;;;10.80;6.32;;;;;;;;;;5074508;28;20038;-78
2024/01/20 05:11:05;;;;;;;9.02;4.97;;;;;;;;;;5083330;28;20028;-78
2024/01/20 05:13:32;;;;;;;7.32;4.10;;;;;;;;;;5081447;28;20377;-78
2024/01/20 05:15:58;;;;;;;9.50;5.53;;;;;;;;;;5079081;28;20035;-77
2024/01/20 05:18:24;;;;;;;8.63;4.03;;;;;;;;;;5075038;28;20024;-78
2024/01/20 05:20:50;;;;;;;18.85;6.00;;;;;;;;;;5078650;28;20039;-77
2024/01/20 05:23:16;;;;;;;12.65;5.18;;;;;;;;;;5075404;28;20037;-77
2024/01/20 05:25:42;;;;;;;10.07;6.28;;;;;;;;;;5076854;28;20495;-76
2024/01/20 05:28:08;;;;;;;7.05;4.55;;;;;;;;;;5080108;28;20032;-78
2024/01/20 05:30:34;;;;;;;7.07;4.15;;;;;;;;;;5078043;28;20888;-77
2024/01/20 05:33:00;;;;;;;7.07;4.00;;;;;;;;;;5079529;28;20404;-78
2024/01/20 05:35:26;;;;;;;7.88;4.68;;;;;;;;;;5077513;28;20043;-77
2024/01/20 05:37:52;;;;;;;7.80;5.05;;;;;;;;;;5080466;28;20027;-77
2024/01/20 05:40:18;;;;;;;9.90;5.55;;;;;;;;;;5079169;28;20156;-76
2024/01/20 05:42:44;;;;;;;8.60;4.13;;;;;;;;;;5070056;28;20040;-78
2024/01/20 05:45:10;;;;;;;9.30;4.75;;;;;;;;;;5080009;28;20028;-77
2024/01/20 05:47:36;;;;;;;12.90;4.97;;;;;;;;;;5081735;28;20031;-77
2024/01/20 05:50:05;;;;;;;11.40;4.30;;;;;;;;;;5076774;28;20020;-77
2024/01/20 05:52:31;;;;;;;7.97;6.07;;;;;;;;;;5077060;28;20039;-78
2024/01/20 05:54:57;;;;;;;13.45;6.70;;;;;;;;;;5082054;28;21697;-77
2024/01/20 05:57:23;;;;;;;13.70;6.60;;;;;;;;;;5085062;28;20039;-78
2024/01/20 05:59:50;;;;;;;9.02;4.93;;;;;;;;;;5078626;28;20043;-78
2024/01/20 06:02:16;;;;;;;10.73;5.40;;;;;;;;;;5083502;28;20871;-77
2024/01/20 06:04:42;;;;;;;15.75;4.40;;;;;;;;;;5080371;28;20032;-77
2024/01/20 06:07:08;;;;;;;22.83;7.80;;;;;;;;;;5074878;28;20028;-78
2024/01/20 06:09:33;;;;;;;10.48;5.60;;;;;;;;;;5071477;28;20032;-77
2024/01/20 06:11:59;;;;;;;15.88;5.20;;;;;;;;;;5079835;28;20036;-76
2024/01/20 06:14:25;;;;;;;20.35;7.15;;;;;;;;;;5083362;28;20028;-77
2024/01/20 06:16:51;;;;;;;43.13;12.68;;;;;;;;;;5078059;28;20039;-77
2024/01/20 06:19:17;;;;;;;20.23;9.85;;;;;;;;;;5077330;28;20032;-76
2024/01/20 06:21:43;;;;;;;9.50;5.72;;;;;;;;;;5078285;28;20036;-77
2024/01/20 06:24:09;;;;;;;8.80;4.40;;;;;;;;;;5081329;28;20055;-77
2024/01/20 06:26:35;;;;;;;11.50;5.93;;;;;;;;;;5078202;28;20039;-77
2024/01/20 06:29:02;;;;;;;19.77;7.15;;;;;;;;;;5073887;28;20024;-77
2024/01/20 06:31:28;;;;;;;8.13;5.80;;;;;;;;;;5067700;28;20504;-75
2024/01/20 06:33:54;;;;;;;13.52;6.25;;;;;;;;;;5070652;28;20511;-75
2024/01/20 06:36:21;;;;;;;9.57;5.82;;;;;;;;;;5076207;28;20189;-76
2024/01/20 06:38:47;;;;;;;15.60;5.07;;;;;;;;;;5078100;28;20066;-76
2024/01/20 06:41:13;;;;;;;11.25;5.82;;;;;;;;;;5082853;28;20040;-77
2024/01/20 06:43:39;;;;;;;14.68;6.35;;;;;;;;;;5080504;28;20055;-77
2024/01/20 06:46:05;;;;;;;8.90;4.53;;;;;;;;;;5081857;28;20499;-77
2024/01/20 06:48:33;;;;;;;10.82;6.57;;;;;;;;;;5071579;28;20395;-77
2024/01/20 06:51:00;;;;;;;10.80;5.70;;;;;;;;;;5081529;28;20310;-76
2024/01/20 06:53:26;;;;;;;11.30;6.10;;;;;;;;;;5079860;28;20036;-77
2024/01/20 06:55:52;;;;;;;12.52;6.88;;;;;;;;;;5076047;28;20113;-77
2024/01/20 06:58:18;;;;;;;9.98;4.97;;;;;;;;;;5079328;28;20093;-78
2024/01/20 07:00:44;;;;;;;12.00;7.45;;;;;;;;;;5076937;28;20041;-75
2024/01/20 07:03:10;;;;;;;12.88;6.38;;;;;;;;;;5083576;28;20120;-77
2024/01/20 07:05:36;;;;;;;13.73;7.32;;;;;;;;;;5088603;28;20020;-75
2024/01/20 07:08:02;;;;;;;9.98;5.18;;;;;;;;;;5091335;28;20027;-75
2024/01/20 07:10:28;;;;;;;9.15;4.72;;;;;;;;;;5104331;28;20030;-74
2024/01/20 07:12:54;;;;;;;13.70;6.18;;;;;;;;;;5092322;28;20118;-77
2024/01/20 07:15:20;;;;;;;14.55;5.43;;;;;;;;;;5090277;28;20024;-77
2024/01/20 07:17:46;;;;;;;10.45;5.68;;;;;;;;;;5068989;28;20054;-75
2024/01/20 07:20:12;;;;;;;15.02;6.28;;;;;;;;;;5078788;28;20028;-76
2024/01/20 07:22:38;;;;;;;11.52;6.25;;;;;;;;;;5075750;28;20039;-77
2024/01/20 07:25:05;;;;;;;12.75;6.90;;;;;;;;;;5084748;28;20076;-76
2024/01/20 07:27:31;;;;;;;14.25;6.57;;;;;;;;;;5085461;28;20582;-77
2024/01/20 07:29:57;;;;;;;15.35;7.20;;;;;;;;;;5085628;28;20020;-76
2024/01/20 07:32:23;;;;;;;19.77;7.00;;;;;;;;;;5084057;28;20477;-76
2024/01/20 07:34:49;;;;;;;13.68;7.28;;;;;;;;;;5082003;28;20051;-77
2024/01/20 07:37:15;;;;;;;14.25;6.13;;;;;;;;;;5060173;28;20039;-76
2024/01/20 07:39:41;;;;;;;10.88;5.88;;;;;;;;;;5088718;28;20511;-76
2024/01/20 07:42:07;;;;;;;14.00;8.32;;;;;;;;;;5077819;28;20032;-76
2024/01/20 07:44:33;;;;;;;16.40;7.57;;;;;;;;;;5086341;28;20070;-76
2024/01/20 07:46:59;;;;;;;15.82;7.43;;;;;;;;;;5083023;28;20024;-77
2024/01/20 07:49:25;;;;;;;17.10;8.18;;;;;;;;;;5080641;28;20079;-77
2024/01/20 07:51:51;;;;;;;18.05;6.97;;;;;;;;;;5084282;28;20028;-75
2024/01/20 07:54:16;;;;;;;15.88;7.93;;;;;;;;;;5082140;28;20047;-76
2024/01/20 07:56:43;;;;;;;13.27;7.15;;;;;;;;;;5077843;28;20036;-77
2024/01/20 07:59:09;;;;;;;20.90;10.48;;;;;;;;;;5087287;28;20128;-75
2024/01/20 08:01:35;;;;;;;19.30;9.60;;;;;;;;;;5075856;28;20151;-76
2024/01/20 08:04:02;;;;;;;19.65;7.25;;;;;;;;;;5079736;28;20575;-76
2024/01/20 08:06:28;;;;;;;21.92;7.15;;;;;;;;;;5083673;28;20084;-77
2024/01/20 08:08:54;;;;;;;14.23;8.27;;;;;;;;;;5074945;28;20024;-76
2024/01/20 08:11:20;;;;;;;17.90;8.68;;;;;;;;;;5079211;28;20506;-77
2024/01/20 08:13:45;;;;;;;14.82;7.97;;;;;;;;;;5072374;28;20038;-76
2024/01/20 08:16:11;;;;;;;17.23;8.50;;;;;;;;;;5076037;28;20020;-77
2024/01/20 08:18:37;;;;;;;23.52;9.07;;;;;;;;;;5081744;28;20024;-76
2024/01/20 08:21:07;;;;;;;15.70;7.20;;;;;;;;;;5070662;28;20067;-77
2024/01/20 08:23:33;;;;;;;15.30;7.03;;;;;;;;;;5076484;28;20020;-77
2024/01/20 08:25:59;;;;;;;16.13;7.90;;;;;;;;;;5082776;28;20028;-76
2024/01/20 08:28:25;;;;;;;17.92;8.73;;;;;;;;;;5079555;28;20035;-76
2024/01/20 08:30:51;;;;;;;11.68;7.35;;;;;;;;;;5062060;28;20028;-77
2024/01/20 08:33:17;;;;;;;28.80;9.55;;;;;;;;;;5071607;28;20079;-77
2024/01/20 08:35:43;;;;;;;26.73;8.30;;;;;;;;;;5080344;28;20100;-76
2024/01/20 08:38:09;;;;;;;16.15;7.90;;;;;;;;;;5078843;28;20035;-76
2024/01/20 08:40:35;;;;;;;19.80;8.82;;;;;;;;;;5073843;28;20040;-77
2024/01/20 08:43:01;;;;;;;16.70;6.70;;;;;;;;;;5068077;28;20078;-76
2024/01/20 08:45:27;;;;;;;15.57;7.70;;;;;;;;;;5075475;28;20836;-75
2024/01/20 08:47:53;;;;;;;22.98;10.05;;;;;;;;;;5076910;28;20032;-75
2024/01/20 08:50:19;;;;;;;18.10;8.82;;;;;;;;;;5071065;28;20036;-77
2024/01/20 08:52:45;;;;;;;19.10;7.85;;;;;;;;;;5071560;28;20035;-76
2024/01/20 08:55:11;;;;;;;22.70;10.13;;;;;;;;;;5063611;28;20084;-76
2024/01/20 08:57:37;;;;;;;23.05;9.48;;;;;;;;;;5077142;28;20450;-75
2024/01/20 09:00:05;;;;;;;23.83;10.20;;;;;;;;;;5069828;28;20040;-75
2024/01/20 09:02:31;;;;;;;25.50;8.80;;;;;;;;;;5080038;28;20526;-75
2024/01/20 09:04:57;;;;;;;16.17;8.25;;;;;;;;;;5079538;28;20119;-75
2024/01/20 09:07:23;;;;;;;17.77;8.18;;;;;;;;;;5076727;28;20016;-75
2024/01/20 09:09:49;;;;;;;20.83;8.27;;;;;;;;;;5067383;28;20039;-76
2024/01/20 09:12:15;;;;;;;19.05;7.97;;;;;;;;;;5071605;28;20040;-77
2024/01/20 09:14:41;;;;;;;28.50;11.57;;;;;;;;;;5071511;28;20043;-76
2024/01/20 09:17:06;;;;;;;22.83;9.57;;;;;;;;;;5078091;28;20054;-76
2024/01/20 09:19:33;;;;;;;24.70;10.52;;;;;;;;;;5075577;28;20032;-76
2024/01/20 09:21:59;;;;;;;21.08;9.82;;;;;;;;;;5073112;28;20596;-78
2024/01/20 09:24:25;;;;;;;18.98;9.93;;;;;;;;;;5073397;28;20036;-78
2024/01/20 09:26:51;;;;;;;22.75;8.48;;;;;;;;;;5067350;28;20130;-77
2024/01/20 09:29:16;;;;;;;23.30;8.98;;;;;;;;;;5068892;28;25155;-78
2024/01/20 09:31:42;;;;;;;22.75;9.90;;;;;;;;;;5071866;28;20108;-76
2024/01/20 09:34:10;;;;;;;24.83;10.55;;;;;;;;;;5071047;28;20100;-77
2024/01/20 09:36:36;;;;;;;28.92;9.40;;;;;;;;;;5081536;28;20495;-78
2024/01/20 09:39:03;;;;;;;22.52;8.80;;;;;;;;;;5074728;28;20032;-77
2024/01/20 09:41:29;;;;;;;22.35;9.32;;;;;;;;;;5081239;28;20055;-77
2024/01/20 09:43:56;;;;;;;23.38;9.15;;;;;;;;;;5057511;28;20024;-77
2024/01/20 09:46:22;;;;;;;17.05;8.85;;;;;;;;;;5082043;28;20476;-77
2024/01/20 09:48:55;;;;;;;19.55;9.55;;;;;;;;;;5063293;28;20034;-77
2024/01/20 09:51:24;;;;;;;25.85;11.68;;;;;;;;;;5076175;28;20036;-77
2024/01/20 09:53:54;;;;;;;33.13;11.15;;;;;;;;;;5062761;28;20482;-77
2024/01/20 09:56:20;;;;;;;19.38;8.88;;;;;;;;;;5077279;28;20016;-77
2024/01/20 09:58:46;;;;;;;19.75;10.00;;;;;;;;;;5073285;28;20024;-77
2024/01/20 10:01:12;;;;;;;21.02;10.07;;;;;;;;;;5065078;28;20036;-76
2024/01/20 10:03:40;;;;;;;20.40;9.05;;;;;;;;;;5069833;28;20031;-77
2024/01/20 10:06:06;;;;;;;19.75;9.45;;;;;;;;;;5073283;28;20039;-77
2024/01/20 10:08:32;;;;;;;17.67;8.50;;;;;;;;;;5078646;28;20089;-77
2024/01/20 10:11:04;;;;;;;25.23;9.77;;;;;;;;;;5077606;28;20107;-77
2024/01/20 10:13:30;;;;;;;23.52;8.82;;;;;;;;;;5080089;28;20617;-77
2024/01/20 10:15:56;;;;;;;22.25;10.18;;;;;;;;;;5074964;28;21793;-77
2024/01/20 10:18:22;;;;;;;21.55;9.13;;;;;;;;;;5077338;28;20437;-76
2024/01/20 10:20:48;;;;;;;24.73;10.32;;;;;;;;;;5082749;28;20029;-77
2024/01/20 10:23:14;;;;;;;23.70;9.80;;;;;;;;;;5075013;28;20035;-78
2024/01/20 10:25:40;;;;;;;22.58;8.68;;;;;;;;;;5073378;28;20077;-77
2024/01/20 10:28:07;;;;;;;19.27;9.30;;;;;;;;;;5076628;28;20083;-78
2024/01/20 10:30:33;;;;;;;21.20;9.90;;;;;;;;;;5085635;28;20043;-75
2024/01/20 10:32:59;;;;;;;17.30;8.55;;;;;;;;;;5082893;28;20036;-76
2024/01/20 10:35:25;;;;;;;24.65;9.90;;;;;;;;;;5093020;28;20119;-77
2024/01/20 10:37:56;;;;;;;25.40;11.25;;;0.60;99.90;;;;;;5096487;28;20899;-76
2024/01/20 10:40:22;;;;;;;22.20;10.00;;;;;;;;;;5082646;28;20040;-78
2024/01/20 10:42:55;;;;;;;23.73;10.93;;;;;;;;;;5079267;28;20031;-77
2024/01/20 10:45:22;;;;;;;21.65;10.35;;;;;;;;;;5091123;28;20044;-76
2024/01/20 10:48:04;;;;;;;23.15;9.75;;;;;;;;;;5076656;28;20154;-76
2024/01/20 10:50:30;;;;;;;20.30;9.88;;;;;;;;;;5087482;28;20038;-77
2024/01/20 10:52:56;;;;;;;15.10;9.20;;;;;;;;;;5082455;28;20135;-77
2024/01/20 10:55:22;;;;;;;20.42;8.32;;;;;;;;;;5071921;28;20033;-76
2024/01/20 10:57:49;;;;;;;27.52;11.75;;;;;;;;;;5073846;28;20028;-76
2024/01/20 11:00:16;;;;;;;25.75;10.15;;;;;;;;;;5075036;28;21168;-76
2024/01/20 11:02:42;;;;;;;21.80;11.50;;;;;;;;;;5082170;28;20024;-77
2024/01/20 11:05:25;;;;;;;22.52;9.00;;;;;;;;;;5075300;28;20028;-76
2024/01/20 11:07:59;;;;;;;29.38;10.80;;;;;;;;;;5072459;28;20111;-77
2024/01/20 11:10:25;;;;;;;25.80;12.02;;;;;;;;;;5075401;28;20608;-77
2024/01/20 11:13:03;;;;;;;20.17;9.85;;;;;;;;;;5070971;28;20024;-76
2024/01/20 11:15:30;;;;;;;21.52;9.48;;;;;;;;;;5083379;28;20028;-78
2024/01/20 11:17:56;;;;;;;24.20;9.77;;;;;;;;;;5070429;28;20125;-77
2024/01/20 11:20:22;;;;;;;23.23;9.90;;;;;;;;;;5080635;28;20028;-76
2024/01/20 11:22:48;;;;;;;26.50;10.85;;;;;;;;;;5077041;28;20504;-77
2024/01/20 11:25:14;;;;;;;19.45;9.45;;;;;;;;;;5066551;28;20021;-78
2024/01/20 11:27:46;;;;;;;26.00;10.38;;;;;;;;;;5072874;28;20023;-76
2024/01/20 11:30:12;;;;;;;21.10;8.43;;;;;;;;;;5070605;28;20119;-77
2024/01/20 11:32:38;;;;;;;22.10;8.77;;;;;;;;;;5081862;28;20401;-77
2024/01/20 11:35:08;;;;;;;22.05;9.48;;;;;;;;;;5086236;28;20028;-76
2024/01/20 11:37:34;;;;;;;18.63;8.77;;;;;;;;;;5077644;28;20031;-76
2024/01/20 11:40:07;;;;;;;23.02;9.88;;;;;;;;;;5080631;28;20016;-77
2024/01/20 11:42:33;;;;;;;18.55;8.90;;;;;;;;;;5078237;28;20039;-77
2024/01/20 11:45:00;;;;;;;21.73;9.55;;;;;;;;;;5084147;28;20024;-76
2024/01/20 11:47:27;;;;;;;21.90;9.85;;;;;;;;;;5072693;28;20036;-76
2024/01/20 11:49:54;;;;;;;21.02;9.73;;;;;;;;;;5080028;28;20028;-76
2024/01/20 11:52:20;;;;;;;15.93;8.45;;;;;;;;;;5081124;28;20415;-75
2024/01/20 11:54:46;;;;;;;22.42;10.30;;;;;;;;;;5082525;28;20046;-75
2024/01/20 11:57:19;;;;;;;17.48;8.20;;;;;;;;;;5080706;28;20028;-76
2024/01/20 11:59:45;;;;;;;22.63;11.20;;;;;;;;;;5080453;28;20036;-76
2024/01/20 12:02:11;;;;;;;17.05;9.60;;;;;;;;;;5083943;28;20051;-77
2024/01/20 12:04:37;;;;;;;20.35;8.82;;;;;;;;;;5080338;28;20085;-76
2024/01/20 12:07:03;;;;;;;20.25;9.25;;;;;;;;;;5083002;28;20039;-76
2024/01/20 12:09:29;;;;;;;19.10;9.93;;;;;;;;;;5076965;28;20034;-77
2024/01/20 12:11:56;;;;;;;15.95;8.93;;;;;;;;;;5068899;28;20489;-77
2024/01/20 12:14:22;;;;;;;21.55;9.23;;;;;;;;;;5070746;28;20385;-77
2024/01/20 12:16:48;;;;;;;21.23;10.32;;;;;;;;;;5084217;28;20028;-75
2024/01/20 12:19:15;;;;;;;25.42;10.65;;;;;;;;;;5081869;28;20024;-76
2024/01/20 12:21:42;;;;;;;20.30;7.78;;;;;;;;;;5077354;28;20400;-75
2024/01/20 12:24:09;;;;;;;20.48;9.45;;;;;;;;;;5084389;28;20024;-76
2024/01/20 12:26:35;;;;;;;21.90;8.88;;;;;;;;;;5084255;28;20055;-77
2024/01/20 12:29:02;;;;;;;19.20;8.23;;;;;;;;;;5072713;28;20060;-77
2024/01/20 12:31:30;;;;;;;20.42;8.85;;;;;;;;;;5077080;28;20067;-74
2024/01/20 12:33:56;;;;;;;21.73;9.38;;;;;;;;;;5082878;28;20024;-76
2024/01/20 12:36:22;;;;;;;18.17;8.02;;;;;;;;;;5077746;28;20027;-75
2024/01/20 12:38:48;;;;;;;16.13;7.90;;;;;;;;;;5069734;28;20668;-74
2024/01/20 12:41:14;;;;;;;22.27;9.43;;;;;;;;;;5079085;28;20042;-77
2024/01/20 12:43:40;;;;;;;22.25;9.80;;;;;;;;;;5075117;28;20024;-75
2024/01/20 12:46:07;;;;;;;18.23;7.85;;;;;;;;;;5082761;28;20020;-77
2024/01/20 12:48:33;;;;;;;21.70;8.48;;;;;;;;;;5076703;28;20024;-76
2024/01/20 12:51:00;;;;;;;21.60;9.05;;;;;;;;;;5084988;28;20431;-76
2024/01/20 12:53:27;;;;;;;18.10;7.90;;;;;;;;;;5084415;28;20039;-74
2024/01/20 12:55:53;;;;;;;19.00;7.65;;;;;;;;;;5074425;28;20052;-75
2024/01/20 12:58:19;;;;;;;20.73;7.95;;;;;;;;;;5084857;28;20532;-75
2024/01/20 13:00:45;;;;;;;22.27;8.30;;;;;;;;;;5084058;28;20040;-75
2024/01/20 13:03:11;;;;;;;23.20;9.07;;;;;;;;;;5085399;28;20023;-75
2024/01/20 13:05:37;;;;;;;18.80;8.57;;;;;;;;;;5086160;28;20023;-75
2024/01/20 13:08:03;;;;;;;17.35;6.78;;;;;;;;;;5085334;28;20271;-76
2024/01/20 13:10:29;;;;;;;18.30;9.05;;;;;;;;;;5091412;28;20031;-75
2024/01/20 13:12:55;;;;;;;22.38;8.52;;;;;;;;;;5081351;28;20480;-75
2024/01/20 13:15:23;;;;;;;20.92;9.40;;;;;;;;;;5085674;28;20525;-76
2024/01/20 13:17:49;;;;;;;18.30;7.63;;;;;;;;;;5073270;28;20094;-75
2024/01/20 13:20:15;;;;;;;17.30;8.15;;;;;;;;;;5081819;28;20508;-75
2024/01/20 13:22:41;;;;;;;16.00;7.05;;;;;;;;;;5072265;28;20024;-76
2024/01/20 13:25:07;;;;;;;23.15;7.80;;;;;;;;;;5075630;28;20035;-76
2024/01/20 13:27:33;;;;;;;17.80;6.55;;;;;;;;;;5084628;28;20043;-75
2024/01/20 13:29:59;;;;;;;17.05;7.03;;;;;;;;;;5079920;28;20258;-76
2024/01/20 13:32:25;;;;;;;14.45;7.85;;;;;;;;;;5074597;28;20024;-75
2024/01/20 13:34:51;;;;;;;20.13;7.65;;;;;;;;;;5079725;28;20526;-76
2024/01/20 13:37:18;;;;;;;16.33;7.43;;;;;;;;;;5081131;28;21507;-77
2024/01/20 13:39:45;;;;;;;15.23;7.03;;;;;;;;;;5084286;28;20020;-77
2024/01/20 13:42:11;;;;;;;20.13;7.97;;;;;;;;;;5083994;28;20081;-75
2024/01/20 13:44:37;;;;;;;13.88;8.15;;;;;;;;;;5078740;28;20347;-76
2024/01/20 13:47:06;;;;;;;12.38;6.03;;;;;;;;;;5055996;28;20043;-75
2024/01/20 13:49:32;;;;;;;15.32;7.63;;;;;;;;;;5074981;28;20023;-77
2024/01/20 13:51:58;;;;;;;18.13;7.65;;;;;;;;;;5080236;28;20028;-77
2024/01/20 13:54:24;;;;;;;16.55;7.57;;;;;;;;;;5069698;28;20041;-75
2024/01/20 13:56:50;;;;;;;19.63;7.32;;;;;;;;;;5073657;28;20082;-75
2024/01/20 13:59:16;;;;;;;15.65;6.60;;;;;;;;;;5075680;28;20039;-76
2024/01/20 14:01:42;;;;;;;16.88;6.82;;;;;;;;;;5079992;28;20032;-77
2024/01/20 14:04:08;;;;;;;20.17;7.05;;;;;;;;;;5077200;28;20024;-76
2024/01/20 14:06:34;;;;;;;13.35;6.38;;;;;;;;;;5080260;28;20203;-74
2024/01/20 14:09:01;;;;;;;14.30;6.95;;;;;;;;;;5067792;28;20394;-75
2024/01/20 14:11:28;;;;;;;17.55;7.35;;;;;;;;;;5084052;28;20093;-75
2024/01/20 14:13:54;;;;;;;18.83;6.70;;;;;;;;;;5074940;28;20480;-75
2024/01/20 14:16:20;;;;;;;17.73;7.00;;;;;;;;;;5079974;28;20035;-75
2024/01/20 14:18:46;;;;;;;13.40;6.22;;;;;;;;;;5067106;28;20043;-76
2024/01/20 14:21:12;;;;;;;17.48;7.20;;;;;;;;;;5071648;28;20032;-74
2024/01/20 14:23:38;;;;;;;15.45;7.50;;;;;;;;;;5069083;28;20115;-75
2024/01/20 14:26:04;;;;;;;13.18;5.50;;;;;;;;;;5075796;28;20161;-75